createdAt,value
2017-11-05T00:00:59.159Z,1001.04
2017-11-05T00:01:59.171Z,1001.00
2017-11-05T00:02:59.225Z,1001.03
2017-11-05T00:03:59.230Z,1000.96
2017-11-05T00:04:59.580Z,1001.09
2017-11-05T00:05:59.329Z,1001.00
2017-11-05T00:06:59.344Z,1001.08
2017-11-05T00:07:59.377Z,1001.06
2017-11-05T00:08:59.465Z,1001.09
2017-11-05T00:09:59.475Z,1001.06
2017-11-05T00:10:59.444Z,1001.06
2017-11-05T00:11:59.726Z,1001.07
2017-11-05T00:12:59.511Z,1001.05
2017-11-05T00:13:59.538Z,1001.03
2017-11-05T00:14:59.569Z,1001.00
2017-11-05T00:15:59.617Z,1001.04
2017-11-05T00:16:59.648Z,1000.99
2017-11-05T00:17:59.659Z,1000.98
2017-11-05T00:18:59.946Z,1000.96
2017-11-05T00:19:59.722Z,1000.99
2017-11-05T00:20:59.776Z,1001.01
2017-11-05T00:21:59.782Z,1000.99
2017-11-05T00:22:59.812Z,1001.02
2017-11-05T00:23:59.844Z,1001.00
2017-11-05T00:25:00.145Z,1000.98
2017-11-05T00:25:59.923Z,1000.98
2017-11-05T00:26:59.951Z,1001.01
2017-11-05T00:27:59.963Z,1000.96
2017-11-05T00:29:00.099Z,1000.98
2017-11-05T00:30:00.028Z,1000.94
2017-11-05T00:31:00.372Z,1000.88
2017-11-05T00:32:00.106Z,1000.95
2017-11-05T00:33:00.119Z,1000.91
2017-11-05T00:34:00.166Z,1000.90
2017-11-05T00:35:00.177Z,1000.91
2017-11-05T00:36:00.220Z,1000.91
2017-11-05T00:37:00.494Z,1000.95
2017-11-05T00:38:00.290Z,1000.92
2017-11-05T00:39:00.341Z,1000.88
2017-11-05T00:40:00.348Z,1000.94
2017-11-05T00:41:00.368Z,1000.92
2017-11-05T00:42:00.400Z,1000.94
2017-11-05T00:43:00.747Z,1000.97
2017-11-05T00:44:00.484Z,1000.95
2017-11-05T00:45:00.485Z,1000.97
2017-11-05T00:46:00.514Z,1000.96
2017-11-05T00:47:00.564Z,1000.95
2017-11-05T00:48:00.607Z,1000.96
2017-11-05T00:49:00.939Z,1000.95
2017-11-05T00:50:00.655Z,1000.92
2017-11-05T00:51:00.673Z,1000.96
2017-11-05T00:52:00.703Z,1000.95
2017-11-05T00:53:00.747Z,1000.98
2017-11-05T00:54:00.786Z,1001.01
2017-11-05T00:55:01.112Z,1001.02
2017-11-05T00:56:00.842Z,1001.00
2017-11-05T00:57:00.867Z,1001.00
2017-11-05T00:58:00.880Z,1001.01
2017-11-05T00:59:00.922Z,1000.99
2017-11-05T01:00:01.091Z,1001.03
2017-11-05T01:01:01.299Z,1000.98
2017-11-05T01:02:01.012Z,1000.97
2017-11-05T01:03:01.036Z,1000.97
2017-11-05T01:04:01.084Z,1000.97
2017-11-05T01:05:01.108Z,1000.97
2017-11-05T01:06:01.301Z,1000.94
2017-11-05T01:07:01.424Z,1000.94
2017-11-05T01:08:01.203Z,1000.95
2017-11-05T01:09:01.222Z,1000.95
2017-11-05T01:10:01.273Z,1000.99
2017-11-05T01:11:01.296Z,1000.94
2017-11-05T01:12:01.313Z,1000.96
2017-11-05T01:13:01.644Z,1000.98
2017-11-05T01:14:01.368Z,1000.99
2017-11-05T01:15:01.416Z,1000.97
2017-11-05T01:16:01.503Z,1000.97
2017-11-05T01:17:01.846Z,1000.96
2017-11-05T01:18:01.497Z,1000.98
2017-11-05T01:19:01.779Z,1001.00
2017-11-05T01:20:01.553Z,1001.00
2017-11-05T01:21:01.586Z,1000.94
2017-11-05T01:22:01.611Z,1000.99
2017-11-05T01:23:01.662Z,1000.99
2017-11-05T01:24:01.690Z,1000.95
2017-11-05T01:25:01.970Z,1000.99
2017-11-05T01:26:01.759Z,1001.00
2017-11-05T01:27:01.768Z,1001.01
2017-11-05T01:28:01.810Z,1001.06
2017-11-05T01:29:01.854Z,1001.09
2017-11-05T01:30:01.868Z,1001.08
2017-11-05T01:31:02.191Z,1001.11
2017-11-05T01:32:01.944Z,1001.07
2017-11-05T01:33:01.960Z,1001.05
2017-11-05T01:34:01.996Z,1001.07
2017-11-05T01:35:02.032Z,1001.01
2017-11-05T01:36:02.058Z,1001.00
2017-11-05T01:37:02.390Z,1000.97
2017-11-05T01:38:02.126Z,1000.95
2017-11-05T01:39:02.137Z,1000.92
2017-11-05T01:40:02.193Z,1000.94
2017-11-05T01:41:02.191Z,1000.91
2017-11-05T01:42:02.241Z,1000.97
2017-11-05T01:43:02.351Z,1000.94
2017-11-05T01:44:02.555Z,1000.94
2017-11-05T01:45:02.326Z,1000.91
2017-11-05T01:46:02.377Z,1000.95
2017-11-05T01:47:02.393Z,1000.93
2017-11-05T01:48:02.406Z,1000.89
2017-11-05T01:49:02.433Z,1000.94
2017-11-05T01:50:02.483Z,1000.91
2017-11-05T01:51:02.820Z,1000.88
2017-11-05T01:52:02.534Z,1000.89
2017-11-05T01:53:02.579Z,1000.87
2017-11-05T01:54:02.615Z,1000.86
2017-11-05T01:55:02.640Z,1000.84
2017-11-05T01:56:02.682Z,1000.86
2017-11-05T01:57:02.721Z,1000.84
2017-11-05T01:58:03.027Z,1000.83
2017-11-05T01:59:02.746Z,1000.83
2017-11-05T02:00:02.773Z,1000.85
2017-11-05T02:01:02.805Z,1000.82
2017-11-05T02:02:02.854Z,1000.81
2017-11-05T02:03:02.900Z,1000.83
2017-11-05T02:04:02.910Z,1000.86
2017-11-05T02:05:03.206Z,1000.86
2017-11-05T02:06:02.972Z,1000.88
2017-11-05T02:07:03.049Z,1000.89
2017-11-05T02:08:03.032Z,1000.88
2017-11-05T02:09:03.046Z,1000.88
2017-11-05T02:10:03.080Z,1000.88
2017-11-05T02:11:03.126Z,1000.92
2017-11-05T02:12:03.451Z,1000.87
2017-11-05T02:13:03.186Z,1000.87
2017-11-05T02:14:03.314Z,1000.82
2017-11-05T02:15:03.229Z,1000.84
2017-11-05T02:16:03.259Z,1000.83
2017-11-05T02:17:03.288Z,1000.83
2017-11-05T02:18:03.341Z,1000.87
2017-11-05T02:19:03.667Z,1000.84
2017-11-05T02:20:03.421Z,1000.85
2017-11-05T02:21:03.410Z,1000.87
2017-11-05T02:22:03.444Z,1000.84
2017-11-05T02:23:03.493Z,1000.81
2017-11-05T02:24:03.506Z,1000.80
2017-11-05T02:25:03.548Z,1000.77
2017-11-05T02:26:03.903Z,1000.78
2017-11-05T02:27:03.602Z,1000.79
2017-11-05T02:28:03.624Z,1000.79
2017-11-05T02:29:03.660Z,1000.77
2017-11-05T02:30:03.685Z,1000.73
2017-11-05T02:31:03.734Z,1000.75
2017-11-05T02:32:03.747Z,1000.69
2017-11-05T02:33:04.093Z,1000.72
2017-11-05T02:34:03.819Z,1000.73
2017-11-05T02:35:03.838Z,1000.75
2017-11-05T02:36:03.886Z,1000.82
2017-11-05T02:37:03.916Z,1000.82
2017-11-05T02:38:03.929Z,1000.81
2017-11-05T02:39:03.963Z,1000.81
2017-11-05T02:40:04.308Z,1000.80
2017-11-05T02:41:04.042Z,1000.86
2017-11-05T02:42:04.053Z,1000.83
2017-11-05T02:43:04.117Z,1000.84
2017-11-05T02:44:04.115Z,1000.87
2017-11-05T02:45:04.143Z,1000.86
2017-11-05T02:46:04.180Z,1000.88
2017-11-05T02:47:04.479Z,1000.91
2017-11-05T02:48:04.302Z,1000.86
2017-11-05T02:49:04.265Z,1000.91
2017-11-05T02:50:04.315Z,1000.90
2017-11-05T02:51:04.349Z,1000.91
2017-11-05T02:52:04.581Z,1000.90
2017-11-05T02:53:04.394Z,1000.88
2017-11-05T02:54:04.734Z,1000.82
2017-11-05T02:55:04.449Z,1000.89
2017-11-05T02:56:04.480Z,1000.88
2017-11-05T02:57:04.536Z,1000.89
2017-11-05T02:58:04.542Z,1000.89
2017-11-05T02:59:04.586Z,1000.91
2017-11-05T03:00:04.898Z,1000.89
2017-11-05T03:01:04.652Z,1000.88
2017-11-05T03:02:04.682Z,1000.93
2017-11-05T03:03:04.777Z,1000.94
2017-11-05T03:04:04.721Z,1000.92
2017-11-05T03:05:04.751Z,1000.94
2017-11-05T03:06:05.081Z,1000.95
2017-11-05T03:07:04.822Z,1000.87
2017-11-05T03:08:04.873Z,1000.92
2017-11-05T03:09:04.892Z,1000.87
2017-11-05T03:10:04.910Z,1000.90
2017-11-05T03:11:04.939Z,1000.90
2017-11-05T03:12:05.285Z,1000.88
2017-11-05T03:13:04.995Z,1000.92
2017-11-05T03:14:05.034Z,1000.88
2017-11-05T03:15:05.073Z,1000.89
2017-11-05T03:16:05.139Z,1000.86
2017-11-05T03:17:05.118Z,1000.90
2017-11-05T03:18:05.434Z,1000.89
2017-11-05T03:19:05.178Z,1000.86
2017-11-05T03:20:05.228Z,1000.84
2017-11-05T03:21:05.246Z,1000.79
2017-11-05T03:22:05.288Z,1000.80
2017-11-05T03:23:05.308Z,1000.81
2017-11-05T03:24:05.582Z,1000.75
2017-11-05T03:25:05.397Z,1000.78
2017-11-05T03:26:05.409Z,1000.75
2017-11-05T03:27:05.433Z,1000.71
2017-11-05T03:28:05.470Z,1000.69
2017-11-05T03:29:05.495Z,1000.69
2017-11-05T03:30:05.827Z,1000.66
2017-11-05T03:31:05.559Z,1000.64
2017-11-05T03:32:05.591Z,1000.67
2017-11-05T03:33:05.600Z,1000.69
2017-11-05T03:34:05.635Z,1000.69
2017-11-05T03:35:05.666Z,1000.70
2017-11-05T03:36:05.956Z,1000.69
2017-11-05T03:37:05.748Z,1000.73
2017-11-05T03:38:05.786Z,1000.71
2017-11-05T03:39:05.785Z,1000.70
2017-11-05T03:40:05.842Z,1000.75
2017-11-05T03:41:05.880Z,1000.76
2017-11-05T03:42:06.124Z,1000.78
2017-11-05T03:43:05.909Z,1000.79
2017-11-05T03:44:05.936Z,1000.78
2017-11-05T03:45:05.987Z,1000.72
2017-11-05T03:46:06.018Z,1000.76
2017-11-05T03:47:06.046Z,1000.75
2017-11-05T03:48:06.357Z,1000.73
2017-11-05T03:49:06.092Z,1000.77
2017-11-05T03:50:06.149Z,1000.74
2017-11-05T03:51:06.160Z,1000.73
2017-11-05T03:52:06.203Z,1000.73
2017-11-05T03:53:06.262Z,1000.77
2017-11-05T03:54:06.572Z,1000.73
2017-11-05T03:55:06.287Z,1000.75
2017-11-05T03:56:06.317Z,1000.77
2017-11-05T03:57:06.337Z,1000.78
2017-11-05T03:58:06.380Z,1000.75
2017-11-05T03:59:06.413Z,1000.79
2017-11-05T04:00:06.686Z,1000.74
2017-11-05T04:01:06.485Z,1000.78
2017-11-05T04:02:06.485Z,1000.77
2017-11-05T04:03:06.527Z,1000.72
2017-11-05T04:04:06.567Z,1000.76
2017-11-05T04:05:06.594Z,1000.76
2017-11-05T04:06:06.871Z,1000.71
2017-11-05T04:07:06.665Z,1000.74
2017-11-05T04:08:06.664Z,1000.76
2017-11-05T04:09:06.751Z,1000.73
2017-11-05T04:10:06.744Z,1000.75
2017-11-05T04:11:06.765Z,1000.75
2017-11-05T04:12:07.061Z,1000.76
2017-11-05T04:13:06.818Z,1000.78
2017-11-05T04:14:06.853Z,1000.75
2017-11-05T04:15:06.898Z,1000.80
2017-11-05T04:16:06.912Z,1000.81
2017-11-05T04:17:06.939Z,1000.81
2017-11-05T04:18:06.969Z,1000.82
2017-11-05T04:19:07.337Z,1000.80
2017-11-05T04:20:07.046Z,1000.80
2017-11-05T04:21:07.075Z,1000.84
2017-11-05T04:22:07.090Z,1000.79
2017-11-05T04:23:07.142Z,1000.77
2017-11-05T04:24:07.171Z,1000.75
2017-11-05T04:25:07.182Z,1000.80
2017-11-05T04:26:07.515Z,1000.79
2017-11-05T04:27:07.243Z,1000.77
2017-11-05T04:28:07.295Z,1000.76
2017-11-05T04:29:07.311Z,1000.77
2017-11-05T04:30:07.337Z,1000.78
2017-11-05T04:31:07.362Z,1000.78
2017-11-05T04:32:07.422Z,1000.78
2017-11-05T04:33:07.694Z,1000.84
2017-11-05T04:34:07.457Z,1000.84
2017-11-05T04:35:07.506Z,1000.87
2017-11-05T04:36:07.549Z,1000.82
2017-11-05T04:37:07.552Z,1000.91
2017-11-05T04:38:07.577Z,1000.93
2017-11-05T04:39:07.625Z,1000.96
2017-11-05T04:40:07.906Z,1000.96
2017-11-05T04:41:07.688Z,1000.92
2017-11-05T04:42:07.704Z,1000.97
2017-11-05T04:43:07.743Z,1000.93
2017-11-05T04:44:07.786Z,1000.96
2017-11-05T04:45:07.787Z,1000.99
2017-11-05T04:46:07.820Z,1000.96
2017-11-05T04:47:08.177Z,1000.99
2017-11-05T04:48:07.921Z,1001.02
2017-11-05T04:49:07.932Z,1001.05
2017-11-05T04:50:07.940Z,1001.04
2017-11-05T04:51:08.012Z,1001.08
2017-11-05T04:52:08.043Z,1001.11
2017-11-05T04:53:08.150Z,1001.08
2017-11-05T04:54:08.314Z,1001.08
2017-11-05T04:55:08.111Z,1001.13
2017-11-05T04:56:08.140Z,1001.10
2017-11-05T04:57:08.231Z,1001.10
2017-11-05T04:58:08.212Z,1001.10
2017-11-05T04:59:08.214Z,1001.11
2017-11-05T05:00:08.270Z,1001.14
2017-11-05T05:01:08.572Z,1001.11
2017-11-05T05:02:08.338Z,1001.14
2017-11-05T05:03:08.378Z,1001.20
2017-11-05T05:04:08.596Z,1001.19
2017-11-05T05:05:08.416Z,1001.19
2017-11-05T05:06:08.424Z,1001.18
2017-11-05T05:07:08.466Z,1001.28
2017-11-05T05:08:08.791Z,1001.26
2017-11-05T05:09:08.535Z,1001.26
2017-11-05T05:10:08.565Z,1001.30
2017-11-05T05:11:08.597Z,1001.24
2017-11-05T05:12:08.624Z,1001.32
2017-11-05T05:13:08.666Z,1001.31
2017-11-05T05:14:08.684Z,1001.34
2017-11-05T05:15:09.006Z,1001.34
2017-11-05T05:16:08.755Z,1001.39
2017-11-05T05:17:08.775Z,1001.36
2017-11-05T05:18:08.807Z,1001.35
2017-11-05T05:19:08.859Z,1001.39
2017-11-05T05:20:08.973Z,1001.37
2017-11-05T05:21:08.903Z,1001.38
2017-11-05T05:22:09.226Z,1001.37
2017-11-05T05:23:08.961Z,1001.35
2017-11-05T05:24:08.972Z,1001.38
2017-11-05T05:25:09.114Z,1001.35
2017-11-05T05:26:09.052Z,1001.38
2017-11-05T05:27:09.070Z,1001.38
2017-11-05T05:28:09.111Z,1001.41
2017-11-05T05:29:09.371Z,1001.44
2017-11-05T05:30:09.155Z,1001.44
2017-11-05T05:31:09.191Z,1001.47
2017-11-05T05:32:09.229Z,1001.50
2017-11-05T05:33:09.243Z,1001.53
2017-11-05T05:34:09.292Z,1001.55
2017-11-05T05:35:09.625Z,1001.51
2017-11-05T05:36:09.354Z,1001.55
2017-11-05T05:37:09.377Z,1001.58
2017-11-05T05:38:09.417Z,1001.60
2017-11-05T05:39:09.427Z,1001.60
2017-11-05T05:40:09.458Z,1001.66
2017-11-05T05:41:09.755Z,1001.59
2017-11-05T05:42:09.547Z,1001.57
2017-11-05T05:43:09.569Z,1001.60
2017-11-05T05:44:09.598Z,1001.59
2017-11-05T05:45:09.605Z,1001.62
2017-11-05T05:46:09.661Z,1001.61
2017-11-05T05:47:09.919Z,1001.68
2017-11-05T05:48:09.706Z,1001.69
2017-11-05T05:49:09.755Z,1001.72
2017-11-05T05:50:09.772Z,1001.66
2017-11-05T05:51:09.789Z,1001.71
2017-11-05T05:52:09.826Z,1001.72
2017-11-05T05:53:10.180Z,1001.78
2017-11-05T05:54:09.896Z,1001.82
2017-11-05T05:55:09.974Z,1001.80
2017-11-05T05:56:09.952Z,1001.83
2017-11-05T05:57:09.968Z,1001.85
2017-11-05T05:58:10.019Z,1001.84
2017-11-05T05:59:10.346Z,1001.86
2017-11-05T06:00:10.074Z,1001.88
2017-11-05T06:01:10.090Z,1001.91
2017-11-05T06:02:10.135Z,1001.96
2017-11-05T06:03:10.173Z,1001.96
2017-11-05T06:04:10.209Z,1001.96
2017-11-05T06:05:10.519Z,1002.00
2017-11-05T06:06:10.260Z,1001.99
2017-11-05T06:07:10.372Z,1002.02
2017-11-05T06:08:10.306Z,1002.05
2017-11-05T06:09:10.329Z,1002.04
2017-11-05T06:10:10.382Z,1002.07
2017-11-05T06:11:10.721Z,1002.14
2017-11-05T06:12:10.441Z,1002.10
2017-11-05T06:13:10.464Z,1002.17
2017-11-05T06:14:10.486Z,1002.19
2017-11-05T06:15:10.515Z,1002.20
2017-11-05T06:16:10.563Z,1002.25
2017-11-05T06:17:10.844Z,1002.29
2017-11-05T06:18:10.612Z,1002.29
2017-11-05T06:19:10.652Z,1002.39
2017-11-05T06:20:10.685Z,1002.36
2017-11-05T06:21:10.712Z,1002.44
2017-11-05T06:22:10.877Z,1002.39
2017-11-05T06:23:11.063Z,1002.44
2017-11-05T06:24:10.822Z,1002.47
2017-11-05T06:25:10.837Z,1002.48
2017-11-05T06:26:10.875Z,1002.52
2017-11-05T06:27:10.900Z,1002.51
2017-11-05T06:28:10.904Z,1002.53
2017-11-05T06:29:11.186Z,1002.52
2017-11-05T06:30:10.986Z,1002.49
2017-11-05T06:31:11.022Z,1002.52
2017-11-05T06:32:11.042Z,1002.56
2017-11-05T06:33:11.090Z,1002.55
2017-11-05T06:34:11.102Z,1002.58
2017-11-05T06:35:11.437Z,1002.61
2017-11-05T06:36:11.164Z,1002.56
2017-11-05T06:37:11.206Z,1002.61
2017-11-05T06:38:11.223Z,1002.64
2017-11-05T06:39:11.255Z,1002.62
2017-11-05T06:40:11.293Z,1002.65
2017-11-05T06:41:11.549Z,1002.64
2017-11-05T06:42:11.353Z,1002.65
2017-11-05T06:43:11.412Z,1002.72
2017-11-05T06:44:11.485Z,1002.72
2017-11-05T06:45:11.440Z,1002.73
2017-11-05T06:46:11.467Z,1002.78
2017-11-05T06:47:11.610Z,1002.75
2017-11-05T06:48:11.831Z,1002.78
2017-11-05T06:49:11.555Z,1002.83
2017-11-05T06:50:11.588Z,1002.82
2017-11-05T06:51:11.617Z,1002.85
2017-11-05T06:52:11.671Z,1002.84
2017-11-05T06:53:11.700Z,1002.86
2017-11-05T06:54:11.710Z,1002.87
2017-11-05T06:55:12.066Z,1002.84
2017-11-05T06:56:11.759Z,1002.91
2017-11-05T06:57:11.812Z,1002.89
2017-11-05T06:58:11.828Z,1002.92
2017-11-05T06:59:11.872Z,1002.94
2017-11-05T07:00:11.877Z,1002.91
2017-11-05T07:01:11.915Z,1002.91
2017-11-05T07:02:12.228Z,1002.93
2017-11-05T07:03:11.970Z,1002.88
2017-11-05T07:04:11.991Z,1002.92
2017-11-05T07:05:12.046Z,1002.95
2017-11-05T07:06:12.063Z,1002.99
2017-11-05T07:07:12.083Z,1003.08
2017-11-05T07:08:12.156Z,1003.06
2017-11-05T07:09:12.385Z,1003.10
2017-11-05T07:10:12.189Z,1003.11
2017-11-05T07:11:12.268Z,1003.13
2017-11-05T07:12:12.228Z,1003.16
2017-11-05T07:13:12.278Z,1003.21
2017-11-05T07:14:12.305Z,1003.25
2017-11-05T07:15:12.353Z,1003.25
2017-11-05T07:16:12.675Z,1003.29
2017-11-05T07:17:12.410Z,1003.27
2017-11-05T07:18:12.426Z,1003.31
2017-11-05T07:19:12.458Z,1003.31
2017-11-05T07:20:12.484Z,1003.37
2017-11-05T07:21:12.548Z,1003.42
2017-11-05T07:22:12.532Z,1003.37
2017-11-05T07:23:12.868Z,1003.41
2017-11-05T07:24:12.604Z,1003.40
2017-11-05T07:25:12.640Z,1003.40
2017-11-05T07:26:12.653Z,1003.38
2017-11-05T07:27:12.683Z,1003.44
2017-11-05T07:28:12.715Z,1003.48
2017-11-05T07:29:12.754Z,1003.49
2017-11-05T07:30:13.096Z,1003.51
2017-11-05T07:31:12.821Z,1003.50
2017-11-05T07:32:12.830Z,1003.51
2017-11-05T07:33:12.876Z,1003.54
2017-11-05T07:34:12.887Z,1003.52
2017-11-05T07:35:12.925Z,1003.50
2017-11-05T07:36:12.950Z,1003.56
2017-11-05T07:37:13.305Z,1003.58
2017-11-05T07:38:13.027Z,1003.59
2017-11-05T07:39:13.046Z,1003.55
2017-11-05T07:40:13.070Z,1003.56
2017-11-05T07:41:13.126Z,1003.60
2017-11-05T07:42:13.131Z,1003.58
2017-11-05T07:43:13.197Z,1003.61
2017-11-05T07:44:13.497Z,1003.61
2017-11-05T07:45:13.265Z,1003.61
2017-11-05T07:46:13.286Z,1003.63
2017-11-05T07:47:13.510Z,1003.60
2017-11-05T07:48:13.332Z,1003.60
2017-11-05T07:49:13.357Z,1003.62
2017-11-05T07:50:13.388Z,1003.59
2017-11-05T07:51:13.653Z,1003.58
2017-11-05T07:52:13.461Z,1003.56
2017-11-05T07:53:13.484Z,1003.59
2017-11-05T07:54:13.511Z,1003.59
2017-11-05T07:55:13.528Z,1003.59
2017-11-05T07:56:13.575Z,1003.58
2017-11-05T07:57:13.598Z,1003.57
2017-11-05T07:58:13.885Z,1003.52
2017-11-05T07:59:13.643Z,1003.56
2017-11-05T08:00:13.687Z,1003.52
2017-11-05T08:01:13.706Z,1003.56
2017-11-05T08:02:13.756Z,1003.66
2017-11-05T08:03:13.765Z,1003.71
2017-11-05T08:04:14.063Z,1003.76
2017-11-05T08:05:13.847Z,1003.77
2017-11-05T08:06:13.855Z,1003.79
2017-11-05T08:07:13.886Z,1003.86
2017-11-05T08:08:13.980Z,1003.86
2017-11-05T08:09:13.943Z,1003.87
2017-11-05T08:10:14.226Z,1003.90
2017-11-05T08:11:14.006Z,1003.94
2017-11-05T08:12:14.036Z,1003.98
2017-11-05T08:13:14.085Z,1004.00
2017-11-05T08:14:14.096Z,1004.05
2017-11-05T08:15:14.140Z,1004.07
2017-11-05T08:16:14.422Z,1004.09
2017-11-05T08:17:14.185Z,1004.13
2017-11-05T08:18:14.220Z,1004.11
2017-11-05T08:19:14.263Z,1004.07
2017-11-05T08:20:14.276Z,1004.13
2017-11-05T08:21:14.321Z,1004.02
2017-11-05T08:22:14.586Z,1003.97
2017-11-05T08:23:14.363Z,1003.94
2017-11-05T08:24:14.401Z,1003.97
2017-11-05T08:25:14.442Z,1004.00
2017-11-05T08:26:14.459Z,1004.00
2017-11-05T08:27:14.526Z,1004.04
2017-11-05T08:28:14.790Z,1003.98
2017-11-05T08:29:14.579Z,1003.97
2017-11-05T08:30:14.576Z,1003.96
2017-11-05T08:31:14.612Z,1003.96
2017-11-05T08:32:14.659Z,1003.93
2017-11-05T08:33:14.685Z,1003.95
2017-11-05T08:34:14.967Z,1003.92
2017-11-05T08:35:14.746Z,1003.94
2017-11-05T08:36:14.789Z,1003.94
2017-11-05T08:37:14.788Z,1003.94
2017-11-05T08:38:14.815Z,1003.90
2017-11-05T08:39:14.887Z,1003.87
2017-11-05T08:40:15.181Z,1003.91
2017-11-05T08:41:14.944Z,1003.97
2017-11-05T08:42:14.947Z,1004.02
2017-11-05T08:43:14.970Z,1004.04
2017-11-05T08:44:15.019Z,1004.07
2017-11-05T08:45:15.066Z,1004.04
2017-11-05T08:46:15.312Z,1003.99
2017-11-05T08:47:15.091Z,1004.00
2017-11-05T08:48:15.117Z,1004.03
2017-11-05T08:49:15.176Z,1004.01
2017-11-05T08:50:15.199Z,1004.01
2017-11-05T08:51:15.223Z,1004.03
2017-11-05T08:52:15.508Z,1004.04
2017-11-05T08:53:15.267Z,1004.09
2017-11-05T08:54:15.297Z,1004.09
2017-11-05T08:55:15.328Z,1004.10
2017-11-05T08:56:15.361Z,1004.13
2017-11-05T08:57:15.395Z,1004.18
2017-11-05T08:58:15.739Z,1004.25
2017-11-05T08:59:15.463Z,1004.22
2017-11-05T09:00:15.506Z,1004.27
2017-11-05T09:01:15.545Z,1004.28
2017-11-05T09:02:15.565Z,1004.33
2017-11-05T09:03:15.593Z,1004.34
2017-11-05T09:04:15.871Z,1004.33
2017-11-05T09:05:15.634Z,1004.32
2017-11-05T09:06:15.678Z,1004.33
2017-11-05T09:07:15.710Z,1004.35
2017-11-05T09:08:15.721Z,1004.35
2017-11-05T09:09:15.769Z,1004.38
2017-11-05T09:10:16.096Z,1004.38
2017-11-05T09:11:15.836Z,1004.38
2017-11-05T09:12:15.847Z,1004.43
2017-11-05T09:13:15.876Z,1004.43
2017-11-05T09:14:15.952Z,1004.49
2017-11-05T09:15:15.951Z,1004.52
2017-11-05T09:16:15.998Z,1004.56
2017-11-05T09:17:16.262Z,1004.61
2017-11-05T09:18:16.045Z,1004.68
2017-11-05T09:19:16.055Z,1004.68
2017-11-05T09:20:16.102Z,1004.68
2017-11-05T09:21:16.115Z,1004.67
2017-11-05T09:22:16.165Z,1004.70
2017-11-05T09:23:16.206Z,1004.71
2017-11-05T09:24:16.474Z,1004.71
2017-11-05T09:25:16.239Z,1004.73
2017-11-05T09:26:16.285Z,1004.80
2017-11-05T09:27:16.327Z,1004.81
2017-11-05T09:28:16.353Z,1004.78
2017-11-05T09:29:16.425Z,1004.78
2017-11-05T09:30:16.441Z,1004.82
2017-11-05T09:31:16.743Z,1004.80
2017-11-05T09:32:16.523Z,1004.80
2017-11-05T09:33:16.479Z,1004.83
2017-11-05T09:34:16.529Z,1004.88
2017-11-05T09:35:16.556Z,1004.91
2017-11-05T09:36:16.594Z,1004.95
2017-11-05T09:37:16.621Z,1004.96
2017-11-05T09:38:17.034Z,1004.95
2017-11-05T09:39:16.672Z,1004.95
2017-11-05T09:40:16.693Z,1004.96
2017-11-05T09:41:16.725Z,1005.00
2017-11-05T09:42:16.773Z,1005.02
2017-11-05T09:43:16.782Z,1005.01
2017-11-05T09:44:16.846Z,1005.04
2017-11-05T09:45:17.093Z,1004.99
2017-11-05T09:46:16.877Z,1005.04
2017-11-05T09:47:16.923Z,1005.07
2017-11-05T09:48:16.954Z,1005.02
2017-11-05T09:49:16.985Z,1005.05
2017-11-05T09:50:17.013Z,1005.10
2017-11-05T09:51:17.041Z,1005.12
2017-11-05T09:52:17.378Z,1005.10
2017-11-05T09:53:17.109Z,1005.15
2017-11-05T09:54:17.138Z,1005.13
2017-11-05T09:55:17.147Z,1005.18
2017-11-05T09:56:17.184Z,1005.16
2017-11-05T09:57:17.376Z,1005.14
2017-11-05T09:58:17.242Z,1005.18
2017-11-05T09:59:17.576Z,1005.17
2017-11-05T10:00:17.301Z,1005.20
2017-11-05T10:01:17.327Z,1005.24
2017-11-05T10:02:17.367Z,1005.27
2017-11-05T10:03:17.421Z,1005.22
2017-11-05T10:04:17.495Z,1005.30
2017-11-05T10:05:17.473Z,1005.27
2017-11-05T10:06:17.746Z,1005.32
2017-11-05T10:07:17.513Z,1005.30
2017-11-05T10:08:17.559Z,1005.35
2017-11-05T10:09:17.592Z,1005.34
2017-11-05T10:10:17.605Z,1005.32
2017-11-05T10:11:17.657Z,1005.33
2017-11-05T10:12:17.818Z,1005.40
2017-11-05T10:13:17.947Z,1005.39
2017-11-05T10:14:17.750Z,1005.39
2017-11-05T10:15:17.776Z,1005.44
2017-11-05T10:16:17.805Z,1005.41
2017-11-05T10:17:17.844Z,1005.37
2017-11-05T10:18:17.866Z,1005.36
2017-11-05T10:19:17.901Z,1005.36
2017-11-05T10:20:18.166Z,1005.35
2017-11-05T10:21:17.960Z,1005.34
2017-11-05T10:22:17.977Z,1005.38
2017-11-05T10:23:18.007Z,1005.37
2017-11-05T10:24:18.037Z,1005.40
2017-11-05T10:25:18.061Z,1005.38
2017-11-05T10:26:18.115Z,1005.45
2017-11-05T10:27:18.445Z,1005.38
2017-11-05T10:28:18.154Z,1005.40
2017-11-05T10:29:18.183Z,1005.37
2017-11-05T10:30:18.238Z,1005.40
2017-11-05T10:31:18.248Z,1005.41
2017-11-05T10:32:18.278Z,1005.42
2017-11-05T10:33:18.726Z,1005.47
2017-11-05T10:34:18.340Z,1005.46
2017-11-05T10:35:18.376Z,1005.45
2017-11-05T10:36:18.420Z,1005.48
2017-11-05T10:37:18.451Z,1005.50
2017-11-05T10:38:18.469Z,1005.54
2017-11-05T10:39:18.816Z,1005.56
2017-11-05T10:40:18.547Z,1005.53
2017-11-05T10:41:18.658Z,1005.55
2017-11-05T10:42:18.631Z,1005.58
2017-11-05T10:43:18.686Z,1005.58
2017-11-05T10:44:18.666Z,1005.59
2017-11-05T10:45:18.978Z,1005.57
2017-11-05T10:46:18.708Z,1005.57
2017-11-05T10:47:18.756Z,1005.61
2017-11-05T10:48:18.822Z,1005.65
2017-11-05T10:49:18.800Z,1005.65
2017-11-05T10:50:18.849Z,1005.64
2017-11-05T10:51:18.862Z,1005.68
2017-11-05T10:52:18.913Z,1005.65
2017-11-05T10:53:18.942Z,1005.71
2017-11-05T10:54:18.972Z,1005.67
2017-11-05T10:55:19.011Z,1005.69
2017-11-05T10:56:19.034Z,1005.71
2017-11-05T10:57:19.316Z,1005.70
2017-11-05T10:58:19.210Z,1005.70
2017-11-05T10:59:19.182Z,1005.72
2017-11-05T11:00:19.172Z,1005.72
2017-11-05T11:01:19.177Z,1005.74
2017-11-05T11:02:19.215Z,1005.74
2017-11-05T11:03:19.533Z,1005.75
2017-11-05T11:04:19.260Z,1005.73
2017-11-05T11:05:19.367Z,1005.74
2017-11-05T11:06:19.329Z,1005.77
2017-11-05T11:07:19.354Z,1005.77
2017-11-05T11:08:19.453Z,1005.80
2017-11-05T11:09:19.719Z,1005.84
2017-11-05T11:10:19.467Z,1005.83
2017-11-05T11:11:19.480Z,1005.79
2017-11-05T11:12:19.508Z,1005.79
2017-11-05T11:13:19.558Z,1005.85
2017-11-05T11:14:19.577Z,1005.80
2017-11-05T11:15:19.919Z,1005.80
2017-11-05T11:16:19.647Z,1005.83
2017-11-05T11:17:19.677Z,1005.82
2017-11-05T11:18:19.692Z,1005.86
2017-11-05T11:19:19.724Z,1005.86
2017-11-05T11:20:19.762Z,1005.79
2017-11-05T11:21:20.142Z,1005.80
2017-11-05T11:22:19.820Z,1005.86
2017-11-05T11:23:19.871Z,1005.78
2017-11-05T11:24:19.876Z,1005.80
2017-11-05T11:25:19.919Z,1005.81
2017-11-05T11:26:19.938Z,1005.83
2017-11-05T11:27:20.289Z,1005.93
2017-11-05T11:28:20.017Z,1005.98
2017-11-05T11:29:20.050Z,1005.90
2017-11-05T11:30:20.083Z,1005.91
2017-11-05T11:31:20.113Z,1005.85
2017-11-05T11:32:20.126Z,1005.96
2017-11-05T11:33:20.476Z,1005.91
2017-11-05T11:34:20.210Z,1005.92
2017-11-05T11:35:20.313Z,1005.94
2017-11-05T11:36:20.367Z,1005.96
2017-11-05T11:37:20.298Z,1005.94
2017-11-05T11:38:20.311Z,1005.99
2017-11-05T11:39:20.696Z,1005.98
2017-11-05T11:40:20.393Z,1005.99
2017-11-05T11:41:20.421Z,1005.99
2017-11-05T11:42:20.455Z,1006.01
2017-11-05T11:43:20.481Z,1005.98
2017-11-05T11:44:20.504Z,1005.95
2017-11-05T11:45:20.846Z,1005.96
2017-11-05T11:46:20.576Z,1005.98
2017-11-05T11:47:20.591Z,1005.95
2017-11-05T11:48:20.819Z,1005.94
2017-11-05T11:49:20.649Z,1005.94
2017-11-05T11:50:20.700Z,1005.97
2017-11-05T11:51:20.731Z,1005.97
2017-11-05T11:52:20.994Z,1005.99
2017-11-05T11:53:20.778Z,1006.01
2017-11-05T11:54:20.820Z,1005.99
2017-11-05T11:55:20.853Z,1006.01
2017-11-05T11:56:20.864Z,1006.00
2017-11-05T11:57:20.931Z,1006.02
2017-11-05T11:58:20.925Z,1005.99
2017-11-05T11:59:21.288Z,1006.02
2017-11-05T12:00:21.008Z,1006.02
2017-11-05T12:01:21.061Z,1005.99
2017-11-05T12:02:21.068Z,1006.05
2017-11-05T12:03:21.085Z,1006.07
2017-11-05T12:04:21.132Z,1006.03
2017-11-05T12:05:21.170Z,1006.02
2017-11-05T12:06:21.432Z,1006.05